Quantum Of The Seas — C6BH8 — position and weather

sailwx.info

Track history (hours):
 
Tides and Currents Weather Stations Pressure Air Temp Water Temp Dewpoint Dewpoint Depression Visibility Wind Speed Wind Dir Waves Ship Positions

Quantum Of The Seas

Last reported at 2019-Mar-22 07:00 UTC. Time now 2019-Mar-22 12:58 UTC.
Position N 30°54' E 129°42'.

Length 348 m; draft 8.9 m.

Type: Passenger vessel. MMSI: 311000267.

Wind from 320 at 30 knots

Barometer 1014.3 mb

Date/timePositionNaut miles runAvg speedWind from/ knotsBaromVisibWave heightAir tempDewpointWater temp
2019-Mar-22 07:00N 30°54' E 129°42'13422.3 320 / 301014.3
2019-Mar-22 01:00N 31°00' E 127°06'25618.2 360 / 351015.310.8 12.610.618.2
2019-Mar-21 10:56N 31°13' E 122°07'1114.5
2019-Mar-21 10:09N 31°16' E 121°55'2 0.1
2019-Mar-20 20:07N 31°16' E 121°53'111.0
2019-Mar-20 20:00N 31°16' E 121°54'610.9
2019-Mar-20 19:27N 31°15' E 122°01'511.3
2019-Mar-20 19:00N 31°13' E 122°07'811.2
2019-Mar-20 18:17N 31°08' E 122°15'413.2
2019-Mar-20 17:58N 31°06' E 122°19'5436590.2
2019-Mar-20 08:46N 51°55' E 004°34'5597535.2
2019-Mar-19 22:18N 31°23' E 126°21'10115.9
2019-Mar-19 16:00N 31°36' E 128°18'3516.2 020 / 101018.310.8 15.8
2019-Mar-19 13:51N 31°50' E 128°55'9010.1
2019-Mar-19 05:00N 32°30' E 130°30'0 0.0 020 / 71014.3
2019-Mar-18 23:00N 32°30' E 130°30'75 6.2 350 / 201014.310.8 9.7 8.8
2019-Mar-18 11:00N 33°42' E 130°06'66 3.5 210 / 22 5.4 12.0 6.714.0
2019-Mar-17 16:00N 33°30' E 128°48'9513.6 100 / 111023.3 5.4 12.0 11.0
2019-Mar-17 09:00N 32°48' E 127°06'11814.7 350 / 26 10.8 12.6 3.318.0
2019-Mar-17 01:00N 31°48' E 125°06'14414.9 350 / 141025.3 5.4 11.710.511.3
2019-Mar-16 15:21N 31°06' E 122°24'514.8
2019-Mar-16 15:00N 31°06' E 122°18'612.3
2019-Mar-16 14:30N 31°10' E 122°12'611.5
2019-Mar-16 14:00N 31°13' E 122°07'510.5
2019-Mar-16 13:30N 31°15' E 122°01'510.3
2019-Mar-16 13:00N 31°16' E 121°55'811.0
2019-Mar-16 12:16N 31°18' E 121°46'15 1.1
2019-Mar-15 22:36N 31°25' E 121°30'1010.3
2019-Mar-15 21:37N 31°20' E 121°41'510.7
2019-Mar-15 21:12N 31°18' E 121°46'2 9.9
2019-Mar-15 20:58N 31°18' E 121°48'510.7
2019-Mar-15 20:30N 31°16' E 121°54'510.6
2019-Mar-15 20:00N 31°15' E 121°60'4 8.6
2019-Mar-15 19:30N 31°14' E 122°05'4 8.7
2019-Mar-15 19:00N 31°12' E 122°09'612.0
2019-Mar-15 18:30N 31°08' E 122°15'4 8.9
2019-Mar-15 18:00N 31°06' E 122°19'10111.2
2019-Mar-15 09:00N 31°36' E 124°12'12015.0 300 / 18 2.2 8.0 6.511.4
2019-Mar-15 01:00N 32°30' E 126°18'212 8.1 210 / 211023.310.8 11.4 5.4
2019-Mar-13 23:00N 33°36' E 130°18'9610.6 200 / 71024.310.8 8.1-2.013.2
2019-Mar-13 14:00N 33°24' E 128°24'34013.1 290 / 251024.3 5.4 10.0 8.0
2019-Mar-12 12:07N 31°07' E 122°16'214.5
2019-Mar-12 11:57N 31°09' E 122°14'613.8
2019-Mar-12 11:29N 31°12' E 122°08'1814.1
2019-Mar-12 10:11N 31°18' E 121°48'  
Track history (hours):
 
Tides and Currents Weather Stations Pressure Air Temp Water Temp Dewpoint Dewpoint Depression Visibility Wind Speed Wind Dir Waves Ship Positions

Quantum Of The Seas

Last reported at 2019-Mar-22 07:00 UTC. Time now 2019-Mar-22 12:58 UTC.
Position N 30°54' E 129°42'.

Length 348 m; draft 8.9 m.

Type: Passenger vessel. MMSI: 311000267.

Wind from 320 at 30 knots

Barometer 1014.3 mb

Date/timePositionNaut miles runAvg speedWind from/ knotsBaromVisibWave heightAir tempDewpointWater temp
2019-Mar-22 07:00N 30°54' E 129°42'13422.3 320 / 301014.3
2019-Mar-22 01:00N 31°00' E 127°06'25618.2 360 / 351015.310.8 12.610.618.2
2019-Mar-21 10:56N 31°13' E 122°07'1114.5
2019-Mar-21 10:09N 31°16' E 121°55'2 0.1
2019-Mar-20 20:07N 31°16' E 121°53'111.0
2019-Mar-20 20:00N 31°16' E 121°54'610.9
2019-Mar-20 19:27N 31°15' E 122°01'511.3
2019-Mar-20 19:00N 31°13' E 122°07'811.2
2019-Mar-20 18:17N 31°08' E 122°15'413.2
2019-Mar-20 17:58N 31°06' E 122°19'5436590.2
2019-Mar-20 08:46N 51°55' E 004°34'5597535.2
2019-Mar-19 22:18N 31°23' E 126°21'10115.9
2019-Mar-19 16:00N 31°36' E 128°18'3516.2 020 / 101018.310.8 15.8
2019-Mar-19 13:51N 31°50' E 128°55'9010.1
2019-Mar-19 05:00N 32°30' E 130°30'0 0.0 020 / 71014.3
2019-Mar-18 23:00N 32°30' E 130°30'75 6.2 350 / 201014.310.8 9.7 8.8
2019-Mar-18 11:00N 33°42' E 130°06'66 3.5 210 / 22 5.4 12.0 6.714.0
2019-Mar-17 16:00N 33°30' E 128°48'9513.6 100 / 111023.3 5.4 12.0 11.0
2019-Mar-17 09:00N 32°48' E 127°06'11814.7 350 / 26 10.8 12.6 3.318.0
2019-Mar-17 01:00N 31°48' E 125°06'14414.9 350 / 141025.3 5.4 11.710.511.3
2019-Mar-16 15:21N 31°06' E 122°24'514.8
2019-Mar-16 15:00N 31°06' E 122°18'612.3
2019-Mar-16 14:30N 31°10' E 122°12'611.5
2019-Mar-16 14:00N 31°13' E 122°07'510.5
2019-Mar-16 13:30N 31°15' E 122°01'510.3
2019-Mar-16 13:00N 31°16' E 121°55'811.0
2019-Mar-16 12:16N 31°18' E 121°46'15 1.1
2019-Mar-15 22:36N 31°25' E 121°30'1010.3
2019-Mar-15 21:37N 31°20' E 121°41'510.7
2019-Mar-15 21:12N 31°18' E 121°46'2 9.9
2019-Mar-15 20:58N 31°18' E 121°48'510.7
2019-Mar-15 20:30N 31°16' E 121°54'510.6
2019-Mar-15 20:00N 31°15' E 121°60'4 8.6
2019-Mar-15 19:30N 31°14' E 122°05'4 8.7
2019-Mar-15 19:00N 31°12' E 122°09'612.0
2019-Mar-15 18:30N 31°08' E 122°15'4 8.9
2019-Mar-15 18:00N 31°06' E 122°19'10111.2
2019-Mar-15 09:00N 31°36' E 124°12'12015.0 300 / 18 2.2 8.0 6.511.4
2019-Mar-15 01:00N 32°30' E 126°18'212 8.1 210 / 211023.310.8 11.4 5.4
2019-Mar-13 23:00N 33°36' E 130°18'9610.6 200 / 71024.310.8 8.1-2.013.2
2019-Mar-13 14:00N 33°24' E 128°24'34013.1 290 / 251024.3 5.4 10.0 8.0
2019-Mar-12 12:07N 31°07' E 122°16'214.5
2019-Mar-12 11:57N 31°09' E 122°14'613.8
2019-Mar-12 11:29N 31°12' E 122°08'1814.1
2019-Mar-12 10:11N 31°18' E 121°48'  

Dump ship's entire track history